sensor_id;sensor_type;location;lat;lon;timestamp;pressure;altitude;pressure_sealevel;temperature;humidity
48424;BME280;34232;42.502;26.014;2022-09-09T00:04:41;100286.22;;;19.65;65.39
48424;BME280;34232;42.502;26.014;2022-09-09T00:07:47;100295.63;;;19.61;65.39
48424;BME280;34232;42.502;26.014;2022-09-09T00:15:38;100302.75;;;19.37;66.23
48424;BME280;34232;42.502;26.014;2022-09-09T00:18:27;100286.31;;;19.26;66.42
48424;BME280;34232;42.502;26.014;2022-09-09T00:21:01;100308.00;;;19.22;66.88
48424;BME280;34232;42.502;26.014;2022-09-09T00:23:30;100305.19;;;19.16;66.93
48424;BME280;34232;42.502;26.014;2022-09-09T00:26:09;100306.59;;;19.12;67.04
48424;BME280;34232;42.502;26.014;2022-09-09T00:28:52;100311.78;;;19.05;67.47
48424;BME280;34232;42.502;26.014;2022-09-09T00:31:27;100319.00;;;18.97;67.85
48424;BME280;34232;42.502;26.014;2022-09-09T00:33:54;100309.00;;;18.91;67.91
48424;BME280;34232;42.502;26.014;2022-09-09T00:36:23;100316.69;;;18.85;68.18
48424;BME280;34232;42.502;26.014;2022-09-09T00:38:55;100307.91;;;18.77;68.49
48424;BME280;34232;42.502;26.014;2022-09-09T00:41:22;100316.56;;;18.79;68.88
48424;BME280;34232;42.502;26.014;2022-09-09T00:44:32;100317.75;;;18.76;68.76
48424;BME280;34232;42.502;26.014;2022-09-09T00:47:09;100320.44;;;18.68;69.21
48424;BME280;34232;42.502;26.014;2022-09-09T00:52:30;100302.94;;;18.58;70.00
48424;BME280;34232;42.502;26.014;2022-09-09T00:57:32;100299.00;;;18.45;70.12
48424;BME280;34232;42.502;26.014;2022-09-09T01:02:30;100298.81;;;18.39;70.26
48424;BME280;34232;42.502;26.014;2022-09-09T01:05:04;100285.66;;;18.37;70.14
48424;BME280;34232;42.502;26.014;2022-09-09T01:07:32;100283.69;;;18.31;70.33
48424;BME280;34232;42.502;26.014;2022-09-09T01:09:59;100295.50;;;18.37;70.35
48424;BME280;34232;42.502;26.014;2022-09-09T01:12:41;100297.16;;;18.38;70.54
48424;BME280;34232;42.502;26.014;2022-09-09T01:17:50;100306.31;;;18.43;70.25
48424;BME280;34232;42.502;26.014;2022-09-09T01:20:23;100293.66;;;18.45;70.35
48424;BME280;34232;42.502;26.014;2022-09-09T01:28:11;100294.16;;;18.49;69.97
48424;BME280;34232;42.502;26.014;2022-09-09T01:30:40;100289.16;;;18.46;70.05
48424;BME280;34232;42.502;26.014;2022-09-09T01:33:13;100291.16;;;18.44;70.12
48424;BME280;34232;42.502;26.014;2022-09-09T01:38:26;100295.88;;;18.34;70.54
48424;BME280;34232;42.502;26.014;2022-09-09T01:40:53;100292.53;;;18.32;70.65
48424;BME280;34232;42.502;26.014;2022-09-09T01:43:22;100287.53;;;18.29;70.68
48424;BME280;34232;42.502;26.014;2022-09-09T01:45:54;100291.88;;;18.22;70.68
48424;BME280;34232;42.502;26.014;2022-09-09T01:48:22;100302.88;;;18.18;70.73
48424;BME280;34232;42.502;26.014;2022-09-09T01:50:48;100293.56;;;18.14;70.85
48424;BME280;34232;42.502;26.014;2022-09-09T01:53:15;100301.88;;;18.11;70.79
48424;BME280;34232;42.502;26.014;2022-09-09T01:55:51;100289.91;;;18.07;70.68
48424;BME280;34232;42.502;26.014;2022-09-09T02:01:02;100289.25;;;17.97;71.20
48424;BME280;34232;42.502;26.014;2022-09-09T02:03:32;100291.09;;;17.97;71.22
48424;BME280;34232;42.502;26.014;2022-09-09T02:08:48;100286.13;;;17.86;71.95
48424;BME280;34232;42.502;26.014;2022-09-09T02:13:45;100281.59;;;17.86;72.15
48424;BME280;34232;42.502;26.014;2022-09-09T02:19:16;100285.28;;;17.85;72.59
48424;BME280;34232;42.502;26.014;2022-09-09T02:21:54;100281.59;;;17.86;72.49
48424;BME280;34232;42.502;26.014;2022-09-09T02:24:20;100290.25;;;17.88;72.33
48424;BME280;34232;42.502;26.014;2022-09-09T02:26:49;100284.75;;;17.90;72.42
48424;BME280;34232;42.502;26.014;2022-09-09T02:29:23;100289.59;;;17.94;72.36
48424;BME280;34232;42.502;26.014;2022-09-09T02:31:51;100291.25;;;17.95;72.47
48424;BME280;34232;42.502;26.014;2022-09-09T02:34:21;100279.44;;;17.90;72.40
48424;BME280;34232;42.502;26.014;2022-09-09T02:36:50;100287.91;;;17.93;72.47
48424;BME280;34232;42.502;26.014;2022-09-09T02:39:18;100273.44;;;17.88;72.39
48424;BME280;34232;42.502;26.014;2022-09-09T02:41:44;100277.59;;;17.90;72.33
48424;BME280;34232;42.502;26.014;2022-09-09T02:44:14;100276.25;;;17.86;72.30
48424;BME280;34232;42.502;26.014;2022-09-09T02:52:15;100285.91;;;17.71;72.05
48424;BME280;34232;42.502;26.014;2022-09-09T02:54:44;100271.91;;;17.61;72.00
48424;BME280;34232;42.502;26.014;2022-09-09T02:57:20;100279.56;;;17.56;72.25
48424;BME280;34232;42.502;26.014;2022-09-09T02:59:47;100295.53;;;17.56;72.72
48424;BME280;34232;42.502;26.014;2022-09-09T03:02:13;100289.22;;;17.48;73.03
48424;BME280;34232;42.502;26.014;2022-09-09T03:04:39;100286.22;;;17.43;72.87
48424;BME280;34232;42.502;26.014;2022-09-09T03:07:05;100283.72;;;17.42;73.04
48424;BME280;34232;42.502;26.014;2022-09-09T03:09:30;100289.38;;;17.47;72.88
48424;BME280;34232;42.502;26.014;2022-09-09T03:11:56;100290.88;;;17.41;72.97
48424;BME280;34232;42.502;26.014;2022-09-09T03:14:22;100294.88;;;17.45;72.82
48424;BME280;34232;42.502;26.014;2022-09-09T03:16:51;100291.53;;;17.43;72.51
48424;BME280;34232;42.502;26.014;2022-09-09T03:19:16;100292.53;;;17.42;72.32
48424;BME280;34232;42.502;26.014;2022-09-09T03:21:44;100293.03;;;17.38;72.47
48424;BME280;34232;42.502;26.014;2022-09-09T03:24:09;100292.53;;;17.34;72.64
48424;BME280;34232;42.502;26.014;2022-09-09T03:26:35;100267.72;;;17.18;72.58
48424;BME280;34232;42.502;26.014;2022-09-09T03:29:00;100289.84;;;17.26;72.87
48424;BME280;34232;42.502;26.014;2022-09-09T03:31:26;100290.53;;;17.20;73.19
48424;BME280;34232;42.502;26.014;2022-09-09T03:33:56;100285.84;;;17.14;73.46
48424;BME280;34232;42.502;26.014;2022-09-09T03:36:22;100296.47;;;17.14;73.72
48424;BME280;34232;42.502;26.014;2022-09-09T03:38:47;100294.31;;;17.09;73.90
48424;BME280;34232;42.502;26.014;2022-09-09T03:41:13;100297.44;;;17.05;74.25
48424;BME280;34232;42.502;26.014;2022-09-09T03:43:38;100299.78;;;17.00;74.35
48424;BME280;34232;42.502;26.014;2022-09-09T03:46:04;100302.75;;;17.05;74.68
48424;BME280;34232;42.502;26.014;2022-09-09T03:48:30;100303.59;;;17.05;74.63
48424;BME280;34232;42.502;26.014;2022-09-09T03:50:56;100302.44;;;17.08;74.46
48424;BME280;34232;42.502;26.014;2022-09-09T03:53:23;100297.78;;;17.10;74.21
48424;BME280;34232;42.502;26.014;2022-09-09T03:55:50;100303.47;;;17.15;73.81
48424;BME280;34232;42.502;26.014;2022-09-09T03:58:18;100304.09;;;17.09;73.92
48424;BME280;34232;42.502;26.014;2022-09-09T04:00:55;100300.13;;;17.13;73.96
48424;BME280;34232;42.502;26.014;2022-09-09T04:03:22;100293.16;;;17.12;74.09
48424;BME280;34232;42.502;26.014;2022-09-09T04:05:50;100301.13;;;17.12;74.46
48424;BME280;34232;42.502;26.014;2022-09-09T04:08:16;100290.97;;;17.07;74.37
48424;BME280;34232;42.502;26.014;2022-09-09T04:10:41;100302.63;;;17.14;74.42
48424;BME280;34232;42.502;26.014;2022-09-09T04:13:07;100299.63;;;17.09;74.43
48424;BME280;34232;42.502;26.014;2022-09-09T04:15:32;100311.81;;;17.20;74.30
48424;BME280;34232;42.502;26.014;2022-09-09T04:17:58;100307.47;;;17.27;73.72
48424;BME280;34232;42.502;26.014;2022-09-09T04:20:23;100307.84;;;17.32;73.85
48424;BME280;34232;42.502;26.014;2022-09-09T04:22:49;100316.81;;;17.39;73.24
48424;BME280;34232;42.502;26.014;2022-09-09T04:25:15;100308.34;;;17.44;72.95
48424;BME280;34232;42.502;26.014;2022-09-09T04:27:40;100308.84;;;17.47;73.00
48424;BME280;34232;42.502;26.014;2022-09-09T04:30:06;100316.53;;;17.51;72.63
48424;BME280;34232;42.502;26.014;2022-09-09T04:32:33;100304.38;;;17.48;72.07
48424;BME280;34232;42.502;26.014;2022-09-09T04:34:59;100319.84;;;17.53;71.65
48424;BME280;34232;42.502;26.014;2022-09-09T04:37:24;100308.53;;;17.51;71.78
48424;BME280;34232;42.502;26.014;2022-09-09T04:39:50;100319.84;;;17.53;72.14
48424;BME280;34232;42.502;26.014;2022-09-09T04:42:15;100313.50;;;17.54;71.74
48424;BME280;34232;42.502;26.014;2022-09-09T04:44:43;100307.19;;;17.55;72.11
48424;BME280;34232;42.502;26.014;2022-09-09T04:47:09;100309.19;;;17.61;72.26
48424;BME280;34232;42.502;26.014;2022-09-09T04:49:35;100303.56;;;17.64;72.64
48424;BME280;34232;42.502;26.014;2022-09-09T04:52:01;100305.25;;;17.65;72.96
48424;BME280;34232;42.502;26.014;2022-09-09T04:54:26;100313.56;;;17.78;72.31
48424;BME280;34232;42.502;26.014;2022-09-09T04:56:53;100306.41;;;17.78;72.83
48424;BME280;34232;42.502;26.014;2022-09-09T04:59:20;100311.91;;;17.93;73.06
48424;BME280;34232;42.502;26.014;2022-09-09T05:01:45;100305.38;;;18.04;73.11
48424;BME280;34232;42.502;26.014;2022-09-09T05:04:11;100310.38;;;18.15;72.31
48424;BME280;34232;42.502;26.014;2022-09-09T05:06:36;100313.84;;;18.24;72.68
48424;BME280;34232;42.502;26.014;2022-09-09T05:09:02;100316.81;;;18.37;72.73
48424;BME280;34232;42.502;26.014;2022-09-09T05:11:30;100322.78;;;18.55;72.59
48424;BME280;34232;42.502;26.014;2022-09-09T05:13:57;100321.75;;;18.72;71.49
48424;BME280;34232;42.502;26.014;2022-09-09T05:16:22;100320.03;;;18.87;70.40
48424;BME280;34232;42.502;26.014;2022-09-09T05:18:48;100317.47;;;19.02;70.34
48424;BME280;34232;42.502;26.014;2022-09-09T05:21:17;100296.34;;;18.93;69.00
48424;BME280;34232;42.502;26.014;2022-09-09T05:23:42;100320.94;;;19.34;69.11
48424;BME280;34232;42.502;26.014;2022-09-09T05:26:12;100317.69;;;19.54;68.76
48424;BME280;34232;42.502;26.014;2022-09-09T05:28:38;100310.56;;;19.70;68.26
48424;BME280;34232;42.502;26.014;2022-09-09T05:31:08;100307.03;;;19.92;66.91
48424;BME280;34232;42.502;26.014;2022-09-09T05:33:35;100310.47;;;20.15;66.93
48424;BME280;34232;42.502;26.014;2022-09-09T05:36:06;100303.69;;;20.27;65.17
48424;BME280;34232;42.502;26.014;2022-09-09T05:38:36;100300.31;;;20.48;64.16
48424;BME280;34232;42.502;26.014;2022-09-09T05:41:03;100294.69;;;20.58;63.24
48424;BME280;34232;42.502;26.014;2022-09-09T05:43:29;100308.13;;;20.79;62.62
48424;BME280;34232;42.502;26.014;2022-09-09T05:46:07;100303.34;;;20.89;62.69
48424;BME280;34232;42.502;26.014;2022-09-09T05:48:34;100305.00;;;20.90;62.01
48424;BME280;34232;42.502;26.014;2022-09-09T05:51:01;100296.66;;;21.00;62.87
48424;BME280;34232;42.502;26.014;2022-09-09T05:53:28;100300.91;;;20.94;62.29
48424;BME280;34232;42.502;26.014;2022-09-09T05:56:04;100287.44;;;21.03;62.65
48424;BME280;34232;42.502;26.014;2022-09-09T05:58:33;100298.59;;;21.21;62.55
48424;BME280;34232;42.502;26.014;2022-09-09T06:01:14;100306.25;;;21.24;61.86
48424;BME280;34232;42.502;26.014;2022-09-09T06:03:44;100305.84;;;21.27;61.67
48424;BME280;34232;42.502;26.014;2022-09-09T06:06:15;100313.41;;;21.38;60.82
48424;BME280;34232;42.502;26.014;2022-09-09T06:08:43;100318.00;;;21.44;60.51
48424;BME280;34232;42.502;26.014;2022-09-09T06:11:15;100313.16;;;21.54;59.96
48424;BME280;34232;42.502;26.014;2022-09-09T06:13:41;100306.84;;;21.41;58.86
48424;BME280;34232;42.502;26.014;2022-09-09T06:16:15;100304.09;;;21.55;60.00
48424;BME280;34232;42.502;26.014;2022-09-09T06:18:41;100301.25;;;21.57;59.31
48424;BME280;34232;42.502;26.014;2022-09-09T06:21:11;100299.31;;;21.51;58.80
48424;BME280;34232;42.502;26.014;2022-09-09T06:23:40;100304.97;;;21.62;58.47
48424;BME280;34232;42.502;26.014;2022-09-09T06:26:17;100304.72;;;21.79;57.92
48424;BME280;34232;42.502;26.014;2022-09-09T06:28:43;100304.22;;;21.90;57.99
48424;BME280;34232;42.502;26.014;2022-09-09T06:31:11;100302.88;;;22.01;56.71
48424;BME280;34232;42.502;26.014;2022-09-09T06:33:40;100304.19;;;22.11;56.28
48424;BME280;34232;42.502;26.014;2022-09-09T06:36:21;100315.84;;;22.25;55.08
48424;BME280;34232;42.502;26.014;2022-09-09T06:38:47;100319.69;;;22.44;56.32
48424;BME280;34232;42.502;26.014;2022-09-09T06:41:16;100299.75;;;22.53;53.60
48424;BME280;34232;42.502;26.014;2022-09-09T06:43:43;100301.69;;;22.72;54.12
48424;BME280;34232;42.502;26.014;2022-09-09T06:46:12;100303.81;;;22.77;54.05
48424;BME280;34232;42.502;26.014;2022-09-09T06:48:39;100290.69;;;23.01;55.38
48424;BME280;34232;42.502;26.014;2022-09-09T06:51:21;100290.50;;;23.10;52.70
48424;BME280;34232;42.502;26.014;2022-09-09T06:53:50;100302.75;;;23.19;52.64
48424;BME280;34232;42.502;26.014;2022-09-09T06:58:41;100301.00;;;23.52;51.51
48424;BME280;34232;42.502;26.014;2022-09-09T07:01:11;100293.56;;;23.67;50.66
48424;BME280;34232;42.502;26.014;2022-09-09T07:03:37;100307.00;;;23.81;50.20
48424;BME280;34232;42.502;26.014;2022-09-09T07:06:03;100318.41;;;23.96;49.00
48424;BME280;34232;42.502;26.014;2022-09-09T07:08:29;100310.34;;;24.02;49.48
48424;BME280;34232;42.502;26.014;2022-09-09T07:11:02;100316.09;;;24.06;48.11
48424;BME280;34232;42.502;26.014;2022-09-09T07:13:29;100314.47;;;24.18;47.75
48424;BME280;34232;42.502;26.014;2022-09-09T07:16:02;100316.50;;;24.36;47.42
48424;BME280;34232;42.502;26.014;2022-09-09T07:18:27;100304.50;;;24.38;47.62
48424;BME280;34232;42.502;26.014;2022-09-09T07:20:53;100308.44;;;24.36;46.30
48424;BME280;34232;42.502;26.014;2022-09-09T07:23:20;100310.69;;;24.59;45.49
48424;BME280;34232;42.502;26.014;2022-09-09T07:25:45;100310.63;;;24.72;45.82
48424;BME280;34232;42.502;26.014;2022-09-09T07:28:11;100310.59;;;24.85;44.37
48424;BME280;34232;42.502;26.014;2022-09-09T07:30:36;100293.19;;;24.94;44.28
48424;BME280;34232;42.502;26.014;2022-09-09T07:33:01;100304.25;;;25.18;44.36
48424;BME280;34232;42.502;26.014;2022-09-09T07:35:28;100300.91;;;25.29;43.10
48424;BME280;34232;42.502;26.014;2022-09-09T07:37:54;100298.00;;;25.30;42.98
48424;BME280;34232;42.502;26.014;2022-09-09T07:40:19;100299.13;;;25.48;42.92
48424;BME280;34232;42.502;26.014;2022-09-09T07:42:47;100303.13;;;25.70;44.05
48424;BME280;34232;42.502;26.014;2022-09-09T07:45:12;100290.97;;;25.86;41.82
48424;BME280;34232;42.502;26.014;2022-09-09T07:47:39;100291.19;;;26.09;41.72
48424;BME280;34232;42.502;26.014;2022-09-09T07:50:06;100301.69;;;26.17;40.71
48424;BME280;34232;42.502;26.014;2022-09-09T07:52:33;100293.09;;;26.27;40.74
48424;BME280;34232;42.502;26.014;2022-09-09T07:54:59;100287.97;;;26.43;40.41
48424;BME280;34232;42.502;26.014;2022-09-09T07:57:25;100284.22;;;26.63;40.47
48424;BME280;34232;42.502;26.014;2022-09-09T07:59:51;100281.81;;;26.73;39.95
48424;BME280;34232;42.502;26.014;2022-09-09T08:02:17;100282.56;;;26.80;39.53
48424;BME280;34232;42.502;26.014;2022-09-09T08:04:42;100288.25;;;26.90;39.76
48424;BME280;34232;42.502;26.014;2022-09-09T08:07:07;100291.94;;;26.96;39.34
48424;BME280;34232;42.502;26.014;2022-09-09T08:09:33;100296.38;;;27.08;39.79
48424;BME280;34232;42.502;26.014;2022-09-09T08:11:58;100291.09;;;27.13;39.05
48424;BME280;34232;42.502;26.014;2022-09-09T08:14:25;100296.78;;;27.24;39.20
48424;BME280;34232;42.502;26.014;2022-09-09T08:16:51;100296.81;;;27.35;38.38
48424;BME280;34232;42.502;26.014;2022-09-09T08:19:18;100283.34;;;27.47;37.07
48424;BME280;34232;42.502;26.014;2022-09-09T08:21:44;100282.88;;;27.50;38.36
48424;BME280;34232;42.502;26.014;2022-09-09T08:24:11;100283.66;;;27.57;36.51
48424;BME280;34232;42.502;26.014;2022-09-09T08:26:39;100284.34;;;27.64;37.59
48424;BME280;34232;42.502;26.014;2022-09-09T08:29:08;100287.78;;;27.71;36.32
48424;BME280;34232;42.502;26.014;2022-09-09T08:31:36;100274.16;;;27.48;36.41
48424;BME280;34232;42.502;26.014;2022-09-09T08:34:03;100283.88;;;27.26;36.39
48424;BME280;34232;42.502;26.014;2022-09-09T08:36:30;100289.69;;;27.41;36.04
48424;BME280;34232;42.502;26.014;2022-09-09T08:38:58;100291.34;;;27.42;35.88
48424;BME280;34232;42.502;26.014;2022-09-09T08:44:48;100280.72;;;27.82;36.78
48424;BME280;34232;42.502;26.014;2022-09-09T08:50:32;100277.63;;;28.20;34.41
48424;BME280;34232;42.502;26.014;2022-09-09T08:55:59;100257.50;;;28.68;34.20
48424;BME280;34232;42.502;26.014;2022-09-09T08:58:34;100258.53;;;28.78;33.75
48424;BME280;34232;42.502;26.014;2022-09-09T09:06:47;100218.63;;;29.02;32.94
48424;BME280;34232;42.502;26.014;2022-09-09T09:11:51;100232.69;;;28.99;32.20
48424;BME280;34232;42.502;26.014;2022-09-09T09:14:19;100230.69;;;28.95;32.42
48424;BME280;34232;42.502;26.014;2022-09-09T09:17:05;100225.09;;;28.73;32.38
48424;BME280;34232;42.502;26.014;2022-09-09T09:19:35;100230.00;;;28.47;32.13
48424;BME280;34232;42.502;26.014;2022-09-09T09:22:21;100227.81;;;28.73;33.09
48424;BME280;34232;42.502;26.014;2022-09-09T09:25:11;100219.63;;;28.44;33.56
48424;BME280;34232;42.502;26.014;2022-09-09T09:28:15;100216.88;;;28.68;32.71
48424;BME280;34232;42.502;26.014;2022-09-09T09:30:50;100212.34;;;28.85;33.45
48424;BME280;34232;42.502;26.014;2022-09-09T09:33:51;100211.47;;;28.96;31.73
48424;BME280;34232;42.502;26.014;2022-09-09T09:36:15;100209.59;;;28.97;32.53
48424;BME280;34232;42.502;26.014;2022-09-09T09:41:32;100207.84;;;29.36;31.91
48424;BME280;34232;42.502;26.014;2022-09-09T09:43:59;100196.25;;;29.57;31.12
48424;BME280;34232;42.502;26.014;2022-09-09T09:46:26;100184.34;;;29.58;31.21
48424;BME280;34232;42.502;26.014;2022-09-09T09:48:58;100193.38;;;29.80;31.86
48424;BME280;34232;42.502;26.014;2022-09-09T09:51:24;100183.91;;;30.00;31.14
48424;BME280;34232;42.502;26.014;2022-09-09T09:53:50;100179.31;;;30.22;30.65
48424;BME280;34232;42.502;26.014;2022-09-09T09:56:26;100186.56;;;30.38;30.54
48424;BME280;34232;42.502;26.014;2022-09-09T09:58:54;100191.47;;;30.58;30.67
48424;BME280;34232;42.502;26.014;2022-09-09T10:03:59;100184.75;;;30.44;30.00
48424;BME280;34232;42.502;26.014;2022-09-09T10:06:33;100182.97;;;30.11;29.53
48424;BME280;34232;42.502;26.014;2022-09-09T10:08:59;100181.91;;;30.12;30.59
48424;BME280;34232;42.502;26.014;2022-09-09T10:11:48;100178.44;;;30.16;30.03
48424;BME280;34232;42.502;26.014;2022-09-09T10:20:23;100172.94;;;29.94;31.72
48424;BME280;34232;42.502;26.014;2022-09-09T10:22:58;100170.16;;;30.28;30.83
48424;BME280;34232;42.502;26.014;2022-09-09T10:25:34;100163.47;;;30.57;30.42
48424;BME280;34232;42.502;26.014;2022-09-09T10:33:57;100178.19;;;31.10;29.37
48424;BME280;34232;42.502;26.014;2022-09-09T10:36:27;100160.78;;;31.11;29.73
48424;BME280;34232;42.502;26.014;2022-09-09T10:52:38;100143.47;;;31.59;29.29
48424;BME280;34232;42.502;26.014;2022-09-09T10:55:14;100144.38;;;31.70;29.12
48424;BME280;34232;42.502;26.014;2022-09-09T10:57:48;100137.94;;;31.12;29.65
48424;BME280;34232;42.502;26.014;2022-09-09T11:00:43;100130.31;;;30.82;29.49
48424;BME280;34232;42.502;26.014;2022-09-09T11:03:22;100127.03;;;30.85;30.27
48424;BME280;34232;42.502;26.014;2022-09-09T11:05:53;100111.66;;;30.96;30.11
48424;BME280;34232;42.502;26.014;2022-09-09T11:08:25;100124.34;;;31.17;30.61
48424;BME280;34232;42.502;26.014;2022-09-09T11:18:55;100096.88;;;31.14;30.66
48424;BME280;34232;42.502;26.014;2022-09-09T11:21:30;100104.84;;;31.25;30.06
48424;BME280;34232;42.502;26.014;2022-09-09T11:24:18;100101.09;;;31.32;30.48
48424;BME280;34232;42.502;26.014;2022-09-09T11:26:52;100102.31;;;31.14;30.37
48424;BME280;34232;42.502;26.014;2022-09-09T11:41:00;100070.81;;;30.91;30.06
48424;BME280;34232;42.502;26.014;2022-09-09T11:43:45;100061.56;;;30.92;31.70
48424;BME280;34232;42.502;26.014;2022-09-09T11:46:16;100065.63;;;30.84;31.38
48424;BME280;34232;42.502;26.014;2022-09-09T11:49:00;100069.16;;;30.90;30.68
48424;BME280;34232;42.502;26.014;2022-09-09T11:51:27;100059.94;;;30.91;30.30
48424;BME280;34232;42.502;26.014;2022-09-09T11:53:57;100066.31;;;30.75;30.10
48424;BME280;34232;42.502;26.014;2022-09-09T11:56:46;100058.13;;;30.70;30.54
48424;BME280;34232;42.502;26.014;2022-09-09T11:59:31;100048.88;;;30.71;31.10
48424;BME280;34232;42.502;26.014;2022-09-09T12:02:18;100056.06;;;30.82;30.88
48424;BME280;34232;42.502;26.014;2022-09-09T12:05:07;100049.56;;;30.88;30.73
48424;BME280;34232;42.502;26.014;2022-09-09T12:07:56;100043.16;;;31.04;31.71
48424;BME280;34232;42.502;26.014;2022-09-09T12:10:28;100030.44;;;31.10;31.49
48424;BME280;34232;42.502;26.014;2022-09-09T12:12:54;100037.34;;;31.22;31.46
48424;BME280;34232;42.502;26.014;2022-09-09T12:15:23;100029.25;;;31.33;30.59
48424;BME280;34232;42.502;26.014;2022-09-09T12:17:52;100028.16;;;31.28;30.80
48424;BME280;34232;42.502;26.014;2022-09-09T12:28:54;99991.09;;;30.85;30.05
48424;BME280;34232;42.502;26.014;2022-09-09T12:34:11;99980.31;;;30.95;30.20
48424;BME280;34232;42.502;26.014;2022-09-09T12:36:39;99984.97;;;31.05;31.11
48424;BME280;34232;42.502;26.014;2022-09-09T12:39:18;99976.88;;;31.10;29.81
48424;BME280;34232;42.502;26.014;2022-09-09T12:41:52;99971.63;;;31.04;30.10
48424;BME280;34232;42.502;26.014;2022-09-09T12:44:23;99979.22;;;31.02;29.53
48424;BME280;34232;42.502;26.014;2022-09-09T12:46:49;99971.38;;;31.05;29.37
48424;BME280;34232;42.502;26.014;2022-09-09T12:49:27;99962.66;;;30.98;29.63
48424;BME280;34232;42.502;26.014;2022-09-09T12:51:54;99965.06;;;30.94;29.90
48424;BME280;34232;42.502;26.014;2022-09-09T12:54:22;99967.00;;;31.04;29.51
48424;BME280;34232;42.502;26.014;2022-09-09T12:56:49;99961.69;;;31.14;29.97
48424;BME280;34232;42.502;26.014;2022-09-09T12:59:38;99952.44;;;31.20;29.73
48424;BME280;34232;42.502;26.014;2022-09-09T13:04:44;99948.91;;;31.15;29.50
48424;BME280;34232;42.502;26.014;2022-09-09T13:07:13;99952.47;;;31.25;29.92
48424;BME280;34232;42.502;26.014;2022-09-09T13:09:39;99951.09;;;31.23;28.85
48424;BME280;34232;42.502;26.014;2022-09-09T13:12:12;99951.38;;;31.21;28.99
48424;BME280;34232;42.502;26.014;2022-09-09T13:14:38;99937.75;;;31.21;29.29
48424;BME280;34232;42.502;26.014;2022-09-09T13:17:05;99938.91;;;31.30;30.13
48424;BME280;34232;42.502;26.014;2022-09-09T13:19:35;99928.59;;;31.38;29.45
48424;BME280;34232;42.502;26.014;2022-09-09T13:22:37;99928.56;;;31.27;28.80
48424;BME280;34232;42.502;26.014;2022-09-09T13:28:01;99929.75;;;31.05;29.14
48424;BME280;34232;42.502;26.014;2022-09-09T13:30:35;99922.78;;;31.14;30.31
48424;BME280;34232;42.502;26.014;2022-09-09T13:33:05;99914.88;;;31.12;32.44
48424;BME280;34232;42.502;26.014;2022-09-09T13:35:32;99914.63;;;31.14;30.36
48424;BME280;34232;42.502;26.014;2022-09-09T13:38:06;99908.41;;;31.28;30.05
48424;BME280;34232;42.502;26.014;2022-09-09T13:40:33;99910.59;;;31.26;29.50
48424;BME280;34232;42.502;26.014;2022-09-09T13:42:59;99905.16;;;31.26;29.27
48424;BME280;34232;42.502;26.014;2022-09-09T13:45:26;99911.16;;;31.34;29.49
48424;BME280;34232;42.502;26.014;2022-09-09T13:47:52;99896.19;;;31.31;28.78
48424;BME280;34232;42.502;26.014;2022-09-09T13:52:47;99909.78;;;31.26;28.81
48424;BME280;34232;42.502;26.014;2022-09-09T13:55:15;99907.91;;;31.32;30.26
48424;BME280;34232;42.502;26.014;2022-09-09T13:58:00;99908.16;;;31.30;30.36
48424;BME280;34232;42.502;26.014;2022-09-09T14:00:26;99895.84;;;31.17;30.35
48424;BME280;34232;42.502;26.014;2022-09-09T14:02:52;99902.44;;;31.26;31.38
48424;BME280;34232;42.502;26.014;2022-09-09T14:05:18;99900.22;;;31.23;31.35
48424;BME280;34232;42.502;26.014;2022-09-09T14:07:44;99898.56;;;31.12;29.75
48424;BME280;34232;42.502;26.014;2022-09-09T14:10:10;99888.75;;;31.11;29.79
48424;BME280;34232;42.502;26.014;2022-09-09T14:12:36;99889.78;;;31.05;30.20
48424;BME280;34232;42.502;26.014;2022-09-09T14:15:03;99890.84;;;31.04;30.06
48424;BME280;34232;42.502;26.014;2022-09-09T14:17:28;99880.47;;;30.91;29.45
48424;BME280;34232;42.502;26.014;2022-09-09T14:19:55;99884.50;;;30.83;29.36
48424;BME280;34232;42.502;26.014;2022-09-09T14:22:21;99880.13;;;30.77;29.92
48424;BME280;34232;42.502;26.014;2022-09-09T14:24:47;99879.59;;;30.80;29.56
48424;BME280;34232;42.502;26.014;2022-09-09T14:27:12;99877.19;;;30.89;29.85
48424;BME280;34232;42.502;26.014;2022-09-09T14:29:38;99876.06;;;30.85;29.68
48424;BME280;34232;42.502;26.014;2022-09-09T14:32:06;99868.25;;;30.93;30.21
48424;BME280;34232;42.502;26.014;2022-09-09T14:34:31;99864.75;;;30.98;30.45
48424;BME280;34232;42.502;26.014;2022-09-09T14:36:58;99863.09;;;30.97;29.63
48424;BME280;34232;42.502;26.014;2022-09-09T14:39:23;99864.44;;;30.94;29.85
48424;BME280;34232;42.502;26.014;2022-09-09T14:41:48;99865.22;;;30.90;30.24
48424;BME280;34232;42.502;26.014;2022-09-09T14:44:14;99866.91;;;30.96;29.44
48424;BME280;34232;42.502;26.014;2022-09-09T14:46:41;99867.44;;;30.93;30.36
48424;BME280;34232;42.502;26.014;2022-09-09T14:49:08;99871.00;;;30.99;31.06
48424;BME280;34232;42.502;26.014;2022-09-09T14:51:35;99867.97;;;30.95;31.07
48424;BME280;34232;42.502;26.014;2022-09-09T14:54:01;99864.97;;;30.91;31.89
48424;BME280;34232;42.502;26.014;2022-09-09T14:56:29;99875.03;;;30.91;31.43
48424;BME280;34232;42.502;26.014;2022-09-09T14:58:56;99866.31;;;30.84;32.97
48424;BME280;34232;42.502;26.014;2022-09-09T15:01:23;99869.03;;;30.84;32.00
48424;BME280;34232;42.502;26.014;2022-09-09T15:03:59;99860.56;;;30.85;33.45
48424;BME280;34232;42.502;26.014;2022-09-09T15:06:26;99857.28;;;30.78;33.63
48424;BME280;34232;42.502;26.014;2022-09-09T15:08:53;99848.78;;;30.65;32.97
48424;BME280;34232;42.502;26.014;2022-09-09T15:11:19;99855.06;;;30.65;31.53